sensor_id;sensor_type;location;lat;lon;timestamp;P1;durP1;ratioP1;P2;durP2;ratioP2
73264;SDS011;61493;51.008;14.088;2023-04-24T00:00:20;8.70;;;3.45;;
73264;SDS011;61493;51.008;14.088;2023-04-24T00:02:45;5.88;;;3.60;;
73264;SDS011;61493;51.008;14.088;2023-04-24T00:05:12;6.10;;;3.80;;
73264;SDS011;61493;51.008;14.088;2023-04-24T00:07:37;7.72;;;3.90;;
73264;SDS011;61493;51.008;14.088;2023-04-24T00:10:02;6.15;;;3.58;;
73264;SDS011;61493;51.008;14.088;2023-04-24T00:12:28;7.85;;;4.68;;
73264;SDS011;61493;51.008;14.088;2023-04-24T00:14:53;7.38;;;4.10;;
73264;SDS011;61493;51.008;14.088;2023-04-24T00:17:18;6.25;;;3.58;;
73264;SDS011;61493;51.008;14.088;2023-04-24T00:19:46;6.03;;;3.75;;
73264;SDS011;61493;51.008;14.088;2023-04-24T00:22:11;5.95;;;3.78;;
73264;SDS011;61493;51.008;14.088;2023-04-24T00:24:38;6.57;;;4.32;;
73264;SDS011;61493;51.008;14.088;2023-04-24T00:27:03;5.95;;;4.13;;
73264;SDS011;61493;51.008;14.088;2023-04-24T00:29:28;6.32;;;3.95;;
73264;SDS011;61493;51.008;14.088;2023-04-24T00:31:53;6.63;;;3.90;;
73264;SDS011;61493;51.008;14.088;2023-04-24T00:34:18;7.18;;;3.90;;
73264;SDS011;61493;51.008;14.088;2023-04-24T00:36:44;6.82;;;4.30;;
73264;SDS011;61493;51.008;14.088;2023-04-24T00:39:09;7.95;;;4.20;;
73264;SDS011;61493;51.008;14.088;2023-04-24T00:41:34;7.57;;;4.85;;
73264;SDS011;61493;51.008;14.088;2023-04-24T00:44:00;8.73;;;4.53;;
73264;SDS011;61493;51.008;14.088;2023-04-24T00:46:25;7.85;;;5.15;;
73264;SDS011;61493;51.008;14.088;2023-04-24T00:48:50;9.95;;;4.47;;
73264;SDS011;61493;51.008;14.088;2023-04-24T00:51:15;9.05;;;4.85;;
73264;SDS011;61493;51.008;14.088;2023-04-24T00:53:40;9.63;;;4.97;;
73264;SDS011;61493;51.008;14.088;2023-04-24T00:56:06;6.95;;;4.43;;
73264;SDS011;61493;51.008;14.088;2023-04-24T00:58:31;8.93;;;4.95;;
73264;SDS011;61493;51.008;14.088;2023-04-24T01:00:56;7.13;;;4.65;;
73264;SDS011;61493;51.008;14.088;2023-04-24T01:03:23;8.60;;;4.72;;
73264;SDS011;61493;51.008;14.088;2023-04-24T01:05:49;8.15;;;4.78;;
73264;SDS011;61493;51.008;14.088;2023-04-24T01:08:14;9.18;;;4.68;;
73264;SDS011;61493;51.008;14.088;2023-04-24T01:10:40;8.52;;;5.30;;
73264;SDS011;61493;51.008;14.088;2023-04-24T01:13:06;7.80;;;5.22;;
73264;SDS011;61493;51.008;14.088;2023-04-24T01:15:32;8.55;;;5.00;;
73264;SDS011;61493;51.008;14.088;2023-04-24T01:17:57;8.05;;;4.88;;
73264;SDS011;61493;51.008;14.088;2023-04-24T01:20:22;9.20;;;5.60;;
73264;SDS011;61493;51.008;14.088;2023-04-24T01:22:49;8.27;;;5.82;;
73264;SDS011;61493;51.008;14.088;2023-04-24T01:25:14;8.90;;;5.13;;
73264;SDS011;61493;51.008;14.088;2023-04-24T01:27:40;7.78;;;5.10;;
73264;SDS011;61493;51.008;14.088;2023-04-24T01:30:05;8.38;;;5.63;;
73264;SDS011;61493;51.008;14.088;2023-04-24T01:32:31;12.45;;;5.75;;
73264;SDS011;61493;51.008;14.088;2023-04-24T01:34:56;8.50;;;5.38;;
73264;SDS011;61493;51.008;14.088;2023-04-24T01:37:21;9.15;;;5.55;;
73264;SDS011;61493;51.008;14.088;2023-04-24T01:39:46;11.50;;;6.88;;
73264;SDS011;61493;51.008;14.088;2023-04-24T01:42:12;9.70;;;5.55;;
73264;SDS011;61493;51.008;14.088;2023-04-24T01:44:37;7.82;;;5.55;;
73264;SDS011;61493;51.008;14.088;2023-04-24T01:47:02;10.07;;;6.00;;
73264;SDS011;61493;51.008;14.088;2023-04-24T01:49:28;9.52;;;5.75;;
73264;SDS011;61493;51.008;14.088;2023-04-24T01:51:53;10.55;;;6.03;;
73264;SDS011;61493;51.008;14.088;2023-04-24T01:54:18;13.77;;;6.47;;
73264;SDS011;61493;51.008;14.088;2023-04-24T01:56:44;9.23;;;5.55;;
73264;SDS011;61493;51.008;14.088;2023-04-24T01:59:10;10.07;;;6.05;;
73264;SDS011;61493;51.008;14.088;2023-04-24T02:01:36;9.82;;;6.78;;
73264;SDS011;61493;51.008;14.088;2023-04-24T02:04:02;8.95;;;5.72;;
73264;SDS011;61493;51.008;14.088;2023-04-24T02:06:27;9.57;;;6.05;;
73264;SDS011;61493;51.008;14.088;2023-04-24T02:08:52;8.70;;;5.15;;
73264;SDS011;61493;51.008;14.088;2023-04-24T02:11:17;8.27;;;4.63;;
73264;SDS011;61493;51.008;14.088;2023-04-24T02:13:43;9.43;;;6.00;;
73264;SDS011;61493;51.008;14.088;2023-04-24T02:16:08;10.05;;;6.03;;
73264;SDS011;61493;51.008;14.088;2023-04-24T02:18:34;9.30;;;6.00;;
73264;SDS011;61493;51.008;14.088;2023-04-24T02:20:59;8.30;;;5.95;;
73264;SDS011;61493;51.008;14.088;2023-04-24T02:23:24;11.13;;;5.82;;
73264;SDS011;61493;51.008;14.088;2023-04-24T02:25:50;10.10;;;5.93;;
73264;SDS011;61493;51.008;14.088;2023-04-24T02:28:15;9.35;;;5.70;;
73264;SDS011;61493;51.008;14.088;2023-04-24T02:30:40;9.38;;;5.85;;
73264;SDS011;61493;51.008;14.088;2023-04-24T02:33:06;10.00;;;5.80;;
73264;SDS011;61493;51.008;14.088;2023-04-24T02:35:31;9.40;;;6.00;;
73264;SDS011;61493;51.008;14.088;2023-04-24T02:37:56;8.70;;;5.18;;
73264;SDS011;61493;51.008;14.088;2023-04-24T02:40:24;8.63;;;5.28;;
73264;SDS011;61493;51.008;14.088;2023-04-24T02:42:49;9.90;;;6.38;;
73264;SDS011;61493;51.008;14.088;2023-04-24T02:45:15;9.05;;;5.07;;
73264;SDS011;61493;51.008;14.088;2023-04-24T02:47:41;8.50;;;4.78;;
73264;SDS011;61493;51.008;14.088;2023-04-24T02:50:06;9.02;;;5.50;;
73264;SDS011;61493;51.008;14.088;2023-04-24T02:52:31;11.85;;;5.78;;
73264;SDS011;61493;51.008;14.088;2023-04-24T02:54:57;8.12;;;5.92;;
73264;SDS011;61493;51.008;14.088;2023-04-24T02:57:22;11.93;;;5.93;;
73264;SDS011;61493;51.008;14.088;2023-04-24T02:59:47;7.97;;;5.35;;
73264;SDS011;61493;51.008;14.088;2023-04-24T03:02:12;9.02;;;6.05;;
73264;SDS011;61493;51.008;14.088;2023-04-24T03:04:37;10.05;;;5.55;;
73264;SDS011;61493;51.008;14.088;2023-04-24T03:07:02;11.00;;;6.05;;
73264;SDS011;61493;51.008;14.088;2023-04-24T03:09:27;9.57;;;6.85;;
73264;SDS011;61493;51.008;14.088;2023-04-24T03:11:53;10.75;;;6.72;;
73264;SDS011;61493;51.008;14.088;2023-04-24T03:14:18;11.35;;;7.13;;
73264;SDS011;61493;51.008;14.088;2023-04-24T03:16:43;15.55;;;8.32;;
73264;SDS011;61493;51.008;14.088;2023-04-24T03:19:08;11.80;;;7.50;;
73264;SDS011;61493;51.008;14.088;2023-04-24T03:21:34;11.56;;;7.88;;
73264;SDS011;61493;51.008;14.088;2023-04-24T03:24:00;12.55;;;7.78;;
73264;SDS011;61493;51.008;14.088;2023-04-24T03:26:25;12.07;;;8.05;;
73264;SDS011;61493;51.008;14.088;2023-04-24T03:28:51;13.73;;;8.35;;
73264;SDS011;61493;51.008;14.088;2023-04-24T03:31:16;12.25;;;7.95;;
73264;SDS011;61493;51.008;14.088;2023-04-24T03:33:41;14.75;;;8.52;;
73264;SDS011;61493;51.008;14.088;2023-04-24T03:36:06;12.75;;;8.90;;
73264;SDS011;61493;51.008;14.088;2023-04-24T03:38:32;12.55;;;9.23;;
73264;SDS011;61493;51.008;14.088;2023-04-24T03:40:57;14.43;;;9.32;;
73264;SDS011;61493;51.008;14.088;2023-04-24T03:43:22;13.75;;;8.82;;
73264;SDS011;61493;51.008;14.088;2023-04-24T03:45:47;14.05;;;9.82;;
73264;SDS011;61493;51.008;14.088;2023-04-24T03:48:12;14.70;;;9.60;;
73264;SDS011;61493;51.008;14.088;2023-04-24T03:50:38;13.38;;;9.25;;
73264;SDS011;61493;51.008;14.088;2023-04-24T03:53:03;15.63;;;9.65;;
73264;SDS011;61493;51.008;14.088;2023-04-24T03:55:28;15.88;;;9.82;;
73264;SDS011;61493;51.008;14.088;2023-04-24T03:57:53;14.32;;;9.85;;
73264;SDS011;61493;51.008;14.088;2023-04-24T04:00:18;16.83;;;10.27;;
73264;SDS011;61493;51.008;14.088;2023-04-24T04:02:44;16.33;;;11.18;;
73264;SDS011;61493;51.008;14.088;2023-04-24T04:05:09;13.52;;;8.75;;
73264;SDS011;61493;51.008;14.088;2023-04-24T04:07:34;16.27;;;9.63;;
73264;SDS011;61493;51.008;14.088;2023-04-24T04:10:00;15.68;;;10.25;;
73264;SDS011;61493;51.008;14.088;2023-04-24T04:12:25;14.40;;;9.82;;
73264;SDS011;61493;51.008;14.088;2023-04-24T04:14:50;18.45;;;10.60;;
73264;SDS011;61493;51.008;14.088;2023-04-24T04:17:15;16.45;;;10.40;;
73264;SDS011;61493;51.008;14.088;2023-04-24T04:19:41;14.73;;;10.38;;
73264;SDS011;61493;51.008;14.088;2023-04-24T04:22:06;18.30;;;10.23;;
73264;SDS011;61493;51.008;14.088;2023-04-24T04:24:33;14.02;;;10.25;;
73264;SDS011;61493;51.008;14.088;2023-04-24T04:26:58;16.02;;;9.77;;
73264;SDS011;61493;51.008;14.088;2023-04-24T04:29:24;20.08;;;10.88;;
73264;SDS011;61493;51.008;14.088;2023-04-24T04:32:05;16.27;;;10.77;;
73264;SDS011;61493;51.008;14.088;2023-04-24T04:34:31;16.15;;;10.52;;
73264;SDS011;61493;51.008;14.088;2023-04-24T04:36:59;15.48;;;9.43;;
73264;SDS011;61493;51.008;14.088;2023-04-24T04:39:27;9.48;;;6.38;;
73264;SDS011;61493;51.008;14.088;2023-04-24T04:41:53;8.75;;;5.15;;
73264;SDS011;61493;51.008;14.088;2023-04-24T04:44:18;9.23;;;4.60;;
73264;SDS011;61493;51.008;14.088;2023-04-24T04:46:44;8.93;;;5.38;;
73264;SDS011;61493;51.008;14.088;2023-04-24T04:49:09;6.95;;;4.25;;
73264;SDS011;61493;51.008;14.088;2023-04-24T04:51:35;8.25;;;5.72;;
73264;SDS011;61493;51.008;14.088;2023-04-24T04:54:01;8.10;;;4.90;;
73264;SDS011;61493;51.008;14.088;2023-04-24T04:59:01;6.40;;;3.33;;
73264;SDS011;61493;51.008;14.088;2023-04-24T05:04:13;4.30;;;2.60;;
73264;SDS011;61493;51.008;14.088;2023-04-24T05:12:14;4.78;;;2.75;;
73264;SDS011;61493;51.008;14.088;2023-04-24T05:14:43;6.22;;;2.70;;
73264;SDS011;61493;51.008;14.088;2023-04-24T05:17:34;3.83;;;2.35;;
73264;SDS011;61493;51.008;14.088;2023-04-24T05:19:59;4.03;;;2.15;;
73264;SDS011;61493;51.008;14.088;2023-04-24T05:22:28;3.70;;;2.65;;
73264;SDS011;61493;51.008;14.088;2023-04-24T05:25:02;5.03;;;2.03;;
73264;SDS011;61493;51.008;14.088;2023-04-24T05:27:40;3.30;;;2.05;;
73264;SDS011;61493;51.008;14.088;2023-04-24T05:33:09;2.05;;;1.55;;
73264;SDS011;61493;51.008;14.088;2023-04-24T05:35:40;3.30;;;1.70;;
73264;SDS011;61493;51.008;14.088;2023-04-24T05:44:46;2.42;;;1.55;;
73264;SDS011;61493;51.008;14.088;2023-04-24T06:48:28;4.43;;;2.90;;
73264;SDS011;61493;51.008;14.088;2023-04-24T06:51:39;8.38;;;3.72;;
73264;SDS011;61493;51.008;14.088;2023-04-24T06:53:58;7.68;;;3.63;;
73264;SDS011;61493;51.008;14.088;2023-04-24T06:56:24;5.90;;;3.78;;
73264;SDS011;61493;51.008;14.088;2023-04-24T06:58:57;8.52;;;3.75;;
73264;SDS011;61493;51.008;14.088;2023-04-24T07:05:06;10.98;;;5.30;;
73264;SDS011;61493;51.008;14.088;2023-04-24T07:07:39;8.63;;;4.80;;
73264;SDS011;61493;51.008;14.088;2023-04-24T07:10:13;7.57;;;4.90;;
73264;SDS011;61493;51.008;14.088;2023-04-24T07:12:42;9.45;;;5.65;;
73264;SDS011;61493;51.008;14.088;2023-04-24T07:15:07;12.35;;;5.15;;
73264;SDS011;61493;51.008;14.088;2023-04-24T07:17:41;11.02;;;6.03;;
73264;SDS011;61493;51.008;14.088;2023-04-24T07:20:30;9.77;;;4.63;;
73264;SDS011;61493;51.008;14.088;2023-04-24T07:22:59;8.48;;;5.32;;
73264;SDS011;61493;51.008;14.088;2023-04-24T07:25:24;11.38;;;5.38;;
73264;SDS011;61493;51.008;14.088;2023-04-24T07:27:49;9.65;;;5.03;;
73264;SDS011;61493;51.008;14.088;2023-04-24T07:30:14;8.73;;;5.23;;
73264;SDS011;61493;51.008;14.088;2023-04-24T07:32:45;8.32;;;4.88;;
73264;SDS011;61493;51.008;14.088;2023-04-24T07:35:13;9.73;;;5.07;;
73264;SDS011;61493;51.008;14.088;2023-04-24T07:37:40;12.75;;;6.10;;
73264;SDS011;61493;51.008;14.088;2023-04-24T07:40:10;9.40;;;5.57;;
73264;SDS011;61493;51.008;14.088;2023-04-24T07:42:36;12.43;;;6.97;;
73264;SDS011;61493;51.008;14.088;2023-04-24T08:00:44;8.52;;;4.68;;
73264;SDS011;61493;51.008;14.088;2023-04-24T08:03:10;8.50;;;4.07;;
73264;SDS011;61493;51.008;14.088;2023-04-24T08:05:46;9.50;;;5.35;;
73264;SDS011;61493;51.008;14.088;2023-04-24T08:08:14;9.40;;;4.88;;
73264;SDS011;61493;51.008;14.088;2023-04-24T08:10:50;10.55;;;5.53;;
73264;SDS011;61493;51.008;14.088;2023-04-24T08:13:38;7.45;;;3.60;;
73264;SDS011;61493;51.008;14.088;2023-04-24T08:16:03;10.38;;;5.47;;
73264;SDS011;61493;51.008;14.088;2023-04-24T08:18:29;7.10;;;3.85;;
73264;SDS011;61493;51.008;14.088;2023-04-24T08:20:54;7.75;;;4.10;;
73264;SDS011;61493;51.008;14.088;2023-04-24T08:26:16;11.88;;;6.20;;
73264;SDS011;61493;51.008;14.088;2023-04-24T08:28:41;6.90;;;4.18;;
73264;SDS011;61493;51.008;14.088;2023-04-24T08:31:16;8.43;;;4.38;;
73264;SDS011;61493;51.008;14.088;2023-04-24T08:44:28;5.70;;;2.92;;
73264;SDS011;61493;51.008;14.088;2023-04-24T08:49:57;9.65;;;4.90;;
73264;SDS011;61493;51.008;14.088;2023-04-24T08:52:24;8.25;;;4.82;;
73264;SDS011;61493;51.008;14.088;2023-04-24T08:54:50;7.93;;;4.60;;
73264;SDS011;61493;51.008;14.088;2023-04-24T08:57:26;11.13;;;5.60;;
73264;SDS011;61493;51.008;14.088;2023-04-24T08:59:54;10.35;;;5.40;;
73264;SDS011;61493;51.008;14.088;2023-04-24T09:02:20;10.18;;;5.97;;
73264;SDS011;61493;51.008;14.088;2023-04-24T09:04:58;13.50;;;6.00;;
73264;SDS011;61493;51.008;14.088;2023-04-24T09:07:24;10.43;;;6.00;;
73264;SDS011;61493;51.008;14.088;2023-04-24T09:09:52;9.90;;;5.35;;
73264;SDS011;61493;51.008;14.088;2023-04-24T09:12:18;12.05;;;6.88;;
73264;SDS011;61493;51.008;14.088;2023-04-24T09:15:02;8.20;;;5.45;;
73264;SDS011;61493;51.008;14.088;2023-04-24T09:17:28;10.23;;;5.82;;
73264;SDS011;61493;51.008;14.088;2023-04-24T09:19:53;8.18;;;5.20;;
73264;SDS011;61493;51.008;14.088;2023-04-24T09:22:22;9.35;;;4.85;;
73264;SDS011;61493;51.008;14.088;2023-04-24T09:24:47;8.60;;;4.80;;
73264;SDS011;61493;51.008;14.088;2023-04-24T09:27:12;9.82;;;5.38;;
73264;SDS011;61493;51.008;14.088;2023-04-24T09:29:38;8.18;;;5.10;;
73264;SDS011;61493;51.008;14.088;2023-04-24T09:32:19;6.70;;;3.88;;
73264;SDS011;61493;51.008;14.088;2023-04-24T09:34:46;5.67;;;3.67;;
73264;SDS011;61493;51.008;14.088;2023-04-24T09:37:18;8.20;;;3.85;;
73264;SDS011;61493;51.008;14.088;2023-04-24T09:42:53;7.97;;;3.05;;
73264;SDS011;61493;51.008;14.088;2023-04-24T09:45:18;6.18;;;3.55;;
73264;SDS011;61493;51.008;14.088;2023-04-24T09:47:43;4.15;;;2.70;;
73264;SDS011;61493;51.008;14.088;2023-04-24T09:50:12;6.47;;;3.80;;
73264;SDS011;61493;51.008;14.088;2023-04-24T09:52:44;6.55;;;3.85;;
73264;SDS011;61493;51.008;14.088;2023-04-24T09:55:15;8.70;;;4.88;;
73264;SDS011;61493;51.008;14.088;2023-04-24T09:57:48;8.20;;;4.57;;
73264;SDS011;61493;51.008;14.088;2023-04-24T10:00:17;6.25;;;4.07;;
73264;SDS011;61493;51.008;14.088;2023-04-24T10:02:42;8.93;;;4.85;;
73264;SDS011;61493;51.008;14.088;2023-04-24T10:05:09;7.82;;;4.38;;
73264;SDS011;61493;51.008;14.088;2023-04-24T10:07:37;7.68;;;4.28;;
73264;SDS011;61493;51.008;14.088;2023-04-24T10:10:02;7.32;;;4.75;;
73264;SDS011;61493;51.008;14.088;2023-04-24T10:12:27;7.13;;;3.80;;
73264;SDS011;61493;51.008;14.088;2023-04-24T10:14:53;8.43;;;4.93;;
73264;SDS011;61493;51.008;14.088;2023-04-24T10:17:19;7.40;;;4.88;;
73264;SDS011;61493;51.008;14.088;2023-04-24T10:19:46;6.70;;;4.55;;
73264;SDS011;61493;51.008;14.088;2023-04-24T10:22:12;9.38;;;5.00;;
73264;SDS011;61493;51.008;14.088;2023-04-24T10:24:37;8.13;;;5.45;;
73264;SDS011;61493;51.008;14.088;2023-04-24T10:27:03;7.25;;;4.25;;
73264;SDS011;61493;51.008;14.088;2023-04-24T10:29:29;7.03;;;4.57;;
73264;SDS011;61493;51.008;14.088;2023-04-24T10:31:56;8.98;;;5.10;;
73264;SDS011;61493;51.008;14.088;2023-04-24T10:34:21;8.70;;;4.65;;
73264;SDS011;61493;51.008;14.088;2023-04-24T10:36:53;10.75;;;5.93;;
73264;SDS011;61493;51.008;14.088;2023-04-24T10:39:19;7.90;;;4.63;;
73264;SDS011;61493;51.008;14.088;2023-04-24T10:41:46;8.38;;;5.43;;
73264;SDS011;61493;51.008;14.088;2023-04-24T10:44:14;8.43;;;4.82;;
73264;SDS011;61493;51.008;14.088;2023-04-24T10:46:44;9.18;;;5.85;;
73264;SDS011;61493;51.008;14.088;2023-04-24T10:49:09;9.52;;;6.38;;
73264;SDS011;61493;51.008;14.088;2023-04-24T10:51:50;9.45;;;6.15;;
73264;SDS011;61493;51.008;14.088;2023-04-24T10:54:28;9.13;;;5.88;;
73264;SDS011;61493;51.008;14.088;2023-04-24T10:56:53;10.15;;;5.93;;
73264;SDS011;61493;51.008;14.088;2023-04-24T10:59:38;7.28;;;5.20;;
73264;SDS011;61493;51.008;14.088;2023-04-24T11:02:03;7.20;;;4.45;;
73264;SDS011;61493;51.008;14.088;2023-04-24T11:04:33;8.13;;;5.07;;
73264;SDS011;61493;51.008;14.088;2023-04-24T11:06:59;7.03;;;4.43;;
73264;SDS011;61493;51.008;14.088;2023-04-24T11:09:28;9.93;;;5.03;;
73264;SDS011;61493;51.008;14.088;2023-04-24T11:12:04;6.95;;;4.55;;
73264;SDS011;61493;51.008;14.088;2023-04-24T11:14:42;8.75;;;4.68;;
73264;SDS011;61493;51.008;14.088;2023-04-24T11:17:30;7.90;;;5.03;;
73264;SDS011;61493;51.008;14.088;2023-04-24T11:20:06;8.98;;;5.82;;
73264;SDS011;61493;51.008;14.088;2023-04-24T11:22:35;8.50;;;4.90;;
73264;SDS011;61493;51.008;14.088;2023-04-24T11:25:01;7.18;;;4.60;;
73264;SDS011;61493;51.008;14.088;2023-04-24T11:27:27;6.30;;;4.32;;
73264;SDS011;61493;51.008;14.088;2023-04-24T11:32:23;6.18;;;4.45;;
73264;SDS011;61493;51.008;14.088;2023-04-24T11:34:49;6.70;;;4.10;;
73264;SDS011;61493;51.008;14.088;2023-04-24T11:37:15;9.82;;;4.13;;
73264;SDS011;61493;51.008;14.088;2023-04-24T11:39:40;6.03;;;4.03;;
73264;SDS011;61493;51.008;14.088;2023-04-24T11:42:06;5.88;;;4.25;;
73264;SDS011;61493;51.008;14.088;2023-04-24T11:44:33;7.07;;;4.55;;
73264;SDS011;61493;51.008;14.088;2023-04-24T11:46:58;7.30;;;5.47;;
73264;SDS011;61493;51.008;14.088;2023-04-24T11:49:23;6.80;;;4.05;;
73264;SDS011;61493;51.008;14.088;2023-04-24T11:51:49;9.10;;;4.93;;
73264;SDS011;61493;51.008;14.088;2023-04-24T11:54:14;5.90;;;4.15;;
73264;SDS011;61493;51.008;14.088;2023-04-24T11:56:44;7.30;;;4.00;;
73264;SDS011;61493;51.008;14.088;2023-04-24T11:59:09;5.68;;;2.92;;
73264;SDS011;61493;51.008;14.088;2023-04-24T12:01:47;6.53;;;3.45;;
73264;SDS011;61493;51.008;14.088;2023-04-24T12:04:13;5.80;;;3.42;;
73264;SDS011;61493;51.008;14.088;2023-04-24T12:06:38;5.53;;;3.72;;
73264;SDS011;61493;51.008;14.088;2023-04-24T12:09:03;5.40;;;3.20;;
73264;SDS011;61493;51.008;14.088;2023-04-24T12:11:29;5.43;;;2.90;;
73264;SDS011;61493;51.008;14.088;2023-04-24T12:13:54;4.70;;;2.70;;
73264;SDS011;61493;51.008;14.088;2023-04-24T12:16:19;3.47;;;2.57;;
73264;SDS011;61493;51.008;14.088;2023-04-24T12:18:45;3.45;;;2.40;;
73264;SDS011;61493;51.008;14.088;2023-04-24T12:21:17;4.65;;;2.25;;
73264;SDS011;61493;51.008;14.088;2023-04-24T12:23:43;3.00;;;1.70;;
73264;SDS011;61493;51.008;14.088;2023-04-24T12:26:08;3.08;;;1.23;;
73264;SDS011;61493;51.008;14.088;2023-04-24T12:28:34;2.53;;;1.20;;
73264;SDS011;61493;51.008;14.088;2023-04-24T12:30:59;3.92;;;1.63;;
73264;SDS011;61493;51.008;14.088;2023-04-24T12:33:25;2.00;;;0.90;;
73264;SDS011;61493;51.008;14.088;2023-04-24T12:35:53;2.03;;;1.00;;
73264;SDS011;61493;51.008;14.088;2023-04-24T12:38:22;1.50;;;1.20;;
73264;SDS011;61493;51.008;14.088;2023-04-24T12:40:47;1.52;;;0.70;;
73264;SDS011;61493;51.008;14.088;2023-04-24T12:43:16;1.67;;;0.98;;
73264;SDS011;61493;51.008;14.088;2023-04-24T12:45:42;0.98;;;0.88;;
73264;SDS011;61493;51.008;14.088;2023-04-24T12:48:07;1.55;;;0.80;;
73264;SDS011;61493;51.008;14.088;2023-04-24T12:50:32;3.97;;;1.20;;
73264;SDS011;61493;51.008;14.088;2023-04-24T12:52:57;2.10;;;0.70;;
73264;SDS011;61493;51.008;14.088;2023-04-24T12:55:22;2.03;;;0.70;;
73264;SDS011;61493;51.008;14.088;2023-04-24T12:57:47;0.60;;;0.50;;
73264;SDS011;61493;51.008;14.088;2023-04-24T13:00:13;2.13;;;0.70;;
73264;SDS011;61493;51.008;14.088;2023-04-24T13:02:38;0.90;;;0.70;;
73264;SDS011;61493;51.008;14.088;2023-04-24T13:05:04;0.60;;;0.52;;
73264;SDS011;61493;51.008;14.088;2023-04-24T13:07:29;1.15;;;0.65;;
73264;SDS011;61493;51.008;14.088;2023-04-24T13:09:55;0.80;;;0.80;;
73264;SDS011;61493;51.008;14.088;2023-04-24T13:12:20;1.08;;;0.82;;
73264;SDS011;61493;51.008;14.088;2023-04-24T13:14:46;2.17;;;1.08;;
73264;SDS011;61493;51.008;14.088;2023-04-24T13:17:11;2.60;;;1.05;;
73264;SDS011;61493;51.008;14.088;2023-04-24T13:19:38;1.00;;;0.80;;
73264;SDS011;61493;51.008;14.088;2023-04-24T13:22:04;1.00;;;0.80;;
73264;SDS011;61493;51.008;14.088;2023-04-24T13:24:29;1.73;;;1.05;;
73264;SDS011;61493;51.008;14.088;2023-04-24T13:26:56;1.15;;;0.70;;
73264;SDS011;61493;51.008;14.088;2023-04-24T13:29:24;1.23;;;0.70;;
73264;SDS011;61493;51.008;14.088;2023-04-24T13:31:50;2.25;;;0.93;;
73264;SDS011;61493;51.008;14.088;2023-04-24T13:34:15;3.08;;;0.85;;
73264;SDS011;61493;51.008;14.088;2023-04-24T13:36:41;1.35;;;0.90;;
73264;SDS011;61493;51.008;14.088;2023-04-24T13:39:06;2.10;;;1.02;;
73264;SDS011;61493;51.008;14.088;2023-04-24T13:41:32;2.13;;;1.07;;
73264;SDS011;61493;51.008;14.088;2023-04-24T13:43:57;2.15;;;0.80;;
73264;SDS011;61493;51.008;14.088;2023-04-24T13:46:22;1.67;;;1.25;;
73264;SDS011;61493;51.008;14.088;2023-04-24T13:48:48;1.80;;;1.03;;
73264;SDS011;61493;51.008;14.088;2023-04-24T13:51:13;1.33;;;1.00;;
73264;SDS011;61493;51.008;14.088;2023-04-24T13:53:41;1.38;;;0.70;;
73264;SDS011;61493;51.008;14.088;2023-04-24T13:56:06;1.33;;;0.90;;
73264;SDS011;61493;51.008;14.088;2023-04-24T13:58:32;1.63;;;1.13;;
73264;SDS011;61493;51.008;14.088;2023-04-24T14:00:57;1.48;;;0.88;;
73264;SDS011;61493;51.008;14.088;2023-04-24T14:03:23;1.00;;;0.85;;
73264;SDS011;61493;51.008;14.088;2023-04-24T14:05:48;1.05;;;0.70;;
73264;SDS011;61493;51.008;14.088;2023-04-24T14:08:13;0.95;;;0.88;;
73264;SDS011;61493;51.008;14.088;2023-04-24T14:10:38;2.10;;;1.00;;
73264;SDS011;61493;51.008;14.088;2023-04-24T14:13:03;4.00;;;0.97;;
73264;SDS011;61493;51.008;14.088;2023-04-24T14:15:29;1.65;;;1.02;;
73264;SDS011;61493;51.008;14.088;2023-04-24T14:17:54;2.33;;;1.05;;
73264;SDS011;61493;51.008;14.088;2023-04-24T14:20:19;1.55;;;1.13;;
73264;SDS011;61493;51.008;14.088;2023-04-24T14:22:45;1.98;;;0.90;;
73264;SDS011;61493;51.008;14.088;2023-04-24T14:25:10;1.52;;;1.00;;
73264;SDS011;61493;51.008;14.088;2023-04-24T14:27:36;5.38;;;2.63;;
73264;SDS011;61493;51.008;14.088;2023-04-24T14:30:01;5.07;;;4.07;;
73264;SDS011;61493;51.008;14.088;2023-04-24T14:32:26;3.25;;;1.60;;
73264;SDS011;61493;51.008;14.088;2023-04-24T14:34:51;1.50;;;0.90;;
73264;SDS011;61493;51.008;14.088;2023-04-24T14:37:16;1.48;;;1.02;;
73264;SDS011;61493;51.008;14.088;2023-04-24T14:39:42;1.23;;;0.90;;
73264;SDS011;61493;51.008;14.088;2023-04-24T14:42:07;2.67;;;1.42;;
73264;SDS011;61493;51.008;14.088;2023-04-24T14:44:32;2.88;;;0.98;;
73264;SDS011;61493;51.008;14.088;2023-04-24T14:46:58;0.70;;;0.70;;
73264;SDS011;61493;51.008;14.088;2023-04-24T14:49:24;1.33;;;1.10;;
73264;SDS011;61493;51.008;14.088;2023-04-24T14:51:49;1.35;;;0.85;;
73264;SDS011;61493;51.008;14.088;2023-04-24T14:54:14;1.00;;;0.70;;
73264;SDS011;61493;51.008;14.088;2023-04-24T14:56:39;1.00;;;0.90;;
73264;SDS011;61493;51.008;14.088;2023-04-24T14:59:05;1.27;;;0.93;;
73264;SDS011;61493;51.008;14.088;2023-04-24T15:01:31;1.33;;;0.93;;
73264;SDS011;61493;51.008;14.088;2023-04-24T15:03:57;2.83;;;0.85;;
73264;SDS011;61493;51.008;14.088;2023-04-24T15:06:22;1.70;;;1.03;;
73264;SDS011;61493;51.008;14.088;2023-04-24T15:08:47;1.95;;;1.13;;
73264;SDS011;61493;51.008;14.088;2023-04-24T15:11:13;3.97;;;1.20;;
73264;SDS011;61493;51.008;14.088;2023-04-24T15:13:38;1.88;;;1.02;;
73264;SDS011;61493;51.008;14.088;2023-04-24T15:16:03;1.60;;;0.90;;
73264;SDS011;61493;51.008;14.088;2023-04-24T15:18:28;2.05;;;1.40;;
73264;SDS011;61493;51.008;14.088;2023-04-24T15:20:54;2.00;;;1.13;;
73264;SDS011;61493;51.008;14.088;2023-04-24T15:23:20;1.25;;;0.93;;
73264;SDS011;61493;51.008;14.088;2023-04-24T15:25:45;1.00;;;0.93;;
73264;SDS011;61493;51.008;14.088;2023-04-24T15:28:10;4.13;;;1.60;;
73264;SDS011;61493;51.008;14.088;2023-04-24T15:30:35;1.30;;;1.02;;
73264;SDS011;61493;51.008;14.088;2023-04-24T15:33:01;1.83;;;1.20;;
73264;SDS011;61493;51.008;14.088;2023-04-24T15:35:26;1.10;;;1.00;;
73264;SDS011;61493;51.008;14.088;2023-04-24T15:37:51;2.10;;;1.20;;
73264;SDS011;61493;51.008;14.088;2023-04-24T15:40:17;2.28;;;0.90;;
73264;SDS011;61493;51.008;14.088;2023-04-24T15:42:42;3.03;;;1.10;;
73264;SDS011;61493;51.008;14.088;2023-04-24T15:45:08;0.90;;;0.90;;
73264;SDS011;61493;51.008;14.088;2023-04-24T15:47:33;2.22;;;1.00;;
73264;SDS011;61493;51.008;14.088;2023-04-24T15:49:58;1.13;;;0.80;;
73264;SDS011;61493;51.008;14.088;2023-04-24T15:52:23;0.98;;;0.90;;
73264;SDS011;61493;51.008;14.088;2023-04-24T15:54:49;1.98;;;0.75;;
73264;SDS011;61493;51.008;14.088;2023-04-24T15:57:14;1.48;;;0.82;;
73264;SDS011;61493;51.008;14.088;2023-04-24T15:59:39;1.38;;;1.27;;
73264;SDS011;61493;51.008;14.088;2023-04-24T16:02:05;1.42;;;1.30;;
73264;SDS011;61493;51.008;14.088;2023-04-24T16:04:30;1.23;;;0.90;;
73264;SDS011;61493;51.008;14.088;2023-04-24T16:06:55;1.60;;;1.10;;
73264;SDS011;61493;51.008;14.088;2023-04-24T16:09:21;3.72;;;1.10;;
73264;SDS011;61493;51.008;14.088;2023-04-24T16:11:46;1.70;;;1.10;;
73264;SDS011;61493;51.008;14.088;2023-04-24T16:14:12;1.40;;;1.20;;
73264;SDS011;61493;51.008;14.088;2023-04-24T16:16:37;3.95;;;1.52;;
73264;SDS011;61493;51.008;14.088;2023-04-24T16:19:02;6.55;;;2.80;;
73264;SDS011;61493;51.008;14.088;2023-04-24T16:21:27;2.65;;;1.60;;
73264;SDS011;61493;51.008;14.088;2023-04-24T16:23:53;2.22;;;1.80;;
73264;SDS011;61493;51.008;14.088;2023-04-24T16:26:18;2.03;;;1.50;;
73264;SDS011;61493;51.008;14.088;2023-04-24T16:28:43;4.90;;;2.40;;
73264;SDS011;61493;51.008;14.088;2023-04-24T16:31:08;2.72;;;1.90;;